Date,TemperatureHighF,TemperatureAvgF,TemperatureLowF,DewpointHighF,DewpointAvgF,DewpointLowF,HumidityHigh,HumidityAvg,HumidityLow,PressureMaxIn,PressureMinIn,WindSpeedMaxMPH,WindSpeedAvgMPH,GustSpeedMaxMPH,PrecipitationSumIn
2013-4-1,44.0,38.3,34.0,30.0,25.3,22.0,77,60,43,30.01,29.81,0,-999,0,0.00
2013-4-2,46.0,39.6,37.0,29.0,10.3,-99.9,70,51,37,30.17,29.98,0,-999,0,0.00
2013-4-3,49.0,41.9,38.0,30.0,-47.9,-99.9,69,20,30,30.20,30.13,0,-999,0,0.00
2013-4-4,47.0,41.4,38.0,30.0,-22.1,-99.9,70,33,28,30.21,30.09,0,-999,0,0.00
2013-4-5,45.0,41.6,39.0,37.0,14.6,-99.9,89,61,46,30.24,30.14,0,-999,0,0.00
2013-4-6,44.0,40.1,34.0,30.0,-59.4,-99.9,78,22,58,30.32,30.25,0,-999,0,0.00
2013-4-7,49.0,43.1,39.0,38.0,17.7,-99.9,91,61,39,30.24,29.87,0,-999,0,0.00
2013-4-8,46.0,43.4,42.0,37.0,22.0,-99.9,79,66,69,29.87,29.44,0,-999,0,0.00
2013-4-9,45.0,41.0,36.0,40.0,-25.7,-99.9,83,42,74,29.60,29.46,0,-999,0,0.00
2013-4-10,45.0,41.7,36.0,45.0,-4.6,-99.9,99,61,77,29.67,29.46,0,-999,0,0.00
2013-4-11,46.0,43.4,40.0,45.0,9.2,-99.9,100,72,85,29.48,29.27,0,-999,0,0.00
2013-4-12,53.0,45.5,42.0,45.0,26.0,-99.9,100,80,66,29.67,29.28,0,-999,0,0.00
2013-4-13,51.0,46.1,41.0,51.0,38.1,-99.9,100,92,68,29.76,29.38,0,-999,0,0.00
2013-4-14,58.0,53.0,48.0,54.0,39.1,-99.9,100,81,70,29.64,29.41,0,-999,0,0.00
2013-4-15,60.0,54.4,49.0,49.0,45.0,39.0,100,72,45,29.88,29.57,0,-999,0,0.00
2013-4-16,55.0,50.9,47.0,48.0,43.3,37.0,97,76,61,29.98,29.47,0,-999,0,0.00
2013-4-17,58.0,51.2,46.0,53.0,47.0,40.0,100,87,58,29.95,29.42,0,-999,0,0.00
2013-4-18,52.0,48.5,46.0,46.0,42.7,41.0,98,81,67,29.93,29.23,0,-999,0,0.00
2013-4-19,52.0,46.6,43.0,45.0,40.8,35.0,97,81,51,30.49,29.97,0,-999,0,0.00
2013-4-20,58.0,48.1,43.0,46.0,35.6,-99.9,100,75,48,30.50,30.30,0,-999,0,0.00
2013-4-21,55.0,49.4,45.0,46.0,41.8,37.0,100,77,52,30.25,29.95,0,-999,0,0.00
2013-4-22,56.0,50.2,45.0,51.0,45.5,42.0,92,83,73,29.97,29.81,0,-999,0,0.00
2013-4-23,53.0,50.6,47.0,49.0,47.3,46.0,97,88,78,30.16,29.86,0,-999,0,0.00
2013-4-24,56.0,50.2,46.0,56.0,42.5,-99.9,100,91,86,30.25,30.02,0,-999,0,0.00
2013-4-25,47.0,45.5,44.0,47.0,45.1,42.0,100,98,85,30.23,30.10,0,-999,0,0.00
2013-4-26,49.0,44.7,39.0,43.0,39.1,36.0,93,81,64,30.16,29.91,0,-999,0,0.00
2013-4-27,49.0,44.9,41.0,42.0,38.0,34.0,88,76,58,30.16,29.93,0,-999,0,0.00
2013-4-28,54.0,48.6,44.0,49.0,40.8,36.0,96,75,56,30.08,29.84,0,-999,0,0.00
2013-4-29,51.0,46.6,44.0,44.0,41.9,39.0,88,84,76,30.17,29.83,0,-999,0,0.00
2013-4-30,49.0,45.7,40.0,43.0,40.6,37.0,93,82,68,30.36,30.16,0,-999,0,0.00